Accueil
METAR-TAF:

METAR-TAF

Aéroports :

Churchill Falls, Terre-Neuve-et-Labrador, Canada

latitude: 53-33N, longitude: 064-06W, altitude: 440 m

Observation

Le bulletin a été fait il y a 37 minutes, à 06:00 UTC
Vent 5 kt de ouest
Température -27°C
Humidité 69%
Pression 1020 hPa
Visibilité: 14.5 km
Ciel clair

METAR: CZUM 180600Z AUTO 26005KT 9SM CLR M27/M31 A3011 RMK SLP252

Heure: 02:37 (06:37 UTC)

Prévision

Le bulletin a été fait il y a 4 heures et 59 minutes, à 01:38 UTC
Prévision valable du 18 à 02 UTC au 18 à 14 UTC
Vent 5 kt de ouest
Visibilité: 10 km
Ciel clair
Temporairement
du 18 à 02 UTC au 18 à 14 UTC
Visibilité: 8.0 km
cristaux de glace

TAF: CZUM 180138Z 1802/1814 27005KT P6SM SKC TEMPO 1802/1814 5SM IC RMK FCST BASED ON AUTO OBS. NXT FCST BY 180800Z

Observations et prévisions météorologiques de plus de 4000 aéroports (messages METAR et TAF).

Les stations disponibles sont représentées par des disques jaunes et rouges sur la carte.

Passer la souris dessus pour voir le nom de la station.

Cliquer dessus pour voir les observations et prévisions météorologiques.

Pour changer de carte: cliquez sur les boutons verts avec une croix noire pour zoomer, sur le bouton vert avec un tiret pour effectuer un zoom arrière, ou sur les flèches vertes pour les cartes adjacentes.


METAR-TAF: